sensor_id;sensor_type;location;lat;lon;timestamp;pressure;altitude;pressure_sealevel;temperature;humidity
74346;BME280;62776;50.518;6.732;2023-05-10T00:02:04;95841.41;;;12.75;100.00
74346;BME280;62776;50.518;6.732;2023-05-10T00:04:56;95838.88;;;12.73;100.00
74346;BME280;62776;50.518;6.732;2023-05-10T00:07:42;95844.09;;;12.73;100.00
74346;BME280;62776;50.518;6.732;2023-05-10T00:10:31;95844.03;;;12.75;100.00
74346;BME280;62776;50.518;6.732;2023-05-10T00:13:31;95836.28;;;12.72;100.00
74346;BME280;62776;50.518;6.732;2023-05-10T00:16:20;95838.00;;;12.73;100.00
74346;BME280;62776;50.518;6.732;2023-05-10T00:19:12;95839.00;;;12.69;100.00
74346;BME280;62776;50.518;6.732;2023-05-10T00:22:00;95839.75;;;12.72;100.00
74346;BME280;62776;50.518;6.732;2023-05-10T00:24:48;95832.78;;;12.73;100.00
74346;BME280;62776;50.518;6.732;2023-05-10T00:27:34;95824.97;;;12.73;100.00
74346;BME280;62776;50.518;6.732;2023-05-10T00:30:21;95825.78;;;12.75;100.00
74346;BME280;62776;50.518;6.732;2023-05-10T00:33:15;95830.03;;;12.77;100.00
74346;BME280;62776;50.518;6.732;2023-05-10T00:36:08;95830.81;;;12.81;100.00
74346;BME280;62776;50.518;6.732;2023-05-10T00:38:55;95826.44;;;12.81;100.00
74346;BME280;62776;50.518;6.732;2023-05-10T00:41:44;95834.41;;;12.77;100.00
74346;BME280;62776;50.518;6.732;2023-05-10T00:44:30;95837.13;;;12.74;100.00
74346;BME280;62776;50.518;6.732;2023-05-10T00:47:17;95830.97;;;12.75;100.00
74346;BME280;62776;50.518;6.732;2023-05-10T00:50:14;95835.41;;;12.73;100.00
74346;BME280;62776;50.518;6.732;2023-05-10T00:53:08;95825.84;;;12.72;100.00
74346;BME280;62776;50.518;6.732;2023-05-10T00:55:54;95832.00;;;12.71;100.00
74346;BME280;62776;50.518;6.732;2023-05-10T00:58:42;95832.88;;;12.70;100.00
74346;BME280;62776;50.518;6.732;2023-05-10T01:01:31;95841.56;;;12.70;100.00
74346;BME280;62776;50.518;6.732;2023-05-10T01:04:23;95836.28;;;12.72;100.00
74346;BME280;62776;50.518;6.732;2023-05-10T01:07:13;95839.94;;;12.66;100.00
74346;BME280;62776;50.518;6.732;2023-05-10T01:10:00;95845.34;;;12.60;100.00
74346;BME280;62776;50.518;6.732;2023-05-10T01:12:53;95839.44;;;12.54;100.00
74346;BME280;62776;50.518;6.732;2023-05-10T01:15:46;95841.28;;;12.50;100.00
74346;BME280;62776;50.518;6.732;2023-05-10T01:18:38;95842.06;;;12.54;100.00
74346;BME280;62776;50.518;6.732;2023-05-10T01:22:18;95837.72;;;12.53;100.00
74346;BME280;62776;50.518;6.732;2023-05-10T01:35:06;95836.03;;;12.52;100.00
74346;BME280;62776;50.518;6.732;2023-05-10T01:38:22;95836.75;;;12.57;100.00
74346;BME280;62776;50.518;6.732;2023-05-10T01:41:18;95824.41;;;12.63;100.00
74346;BME280;62776;50.518;6.732;2023-05-10T01:44:18;95829.00;;;12.55;100.00
74346;BME280;62776;50.518;6.732;2023-05-10T01:47:40;95838.81;;;12.46;100.00
74346;BME280;62776;50.518;6.732;2023-05-10T01:50:31;95841.72;;;12.66;100.00
74346;BME280;62776;50.518;6.732;2023-05-10T01:53:20;95841.72;;;12.66;100.00
74346;BME280;62776;50.518;6.732;2023-05-10T01:56:08;95845.97;;;12.68;100.00
74346;BME280;62776;50.518;6.732;2023-05-10T01:59:06;95848.63;;;12.67;100.00
74346;BME280;62776;50.518;6.732;2023-05-10T02:01:57;95847.72;;;12.68;100.00
74346;BME280;62776;50.518;6.732;2023-05-10T02:04:47;95850.34;;;12.68;100.00
74346;BME280;62776;50.518;6.732;2023-05-10T02:07:36;95852.06;;;12.69;100.00
74346;BME280;62776;50.518;6.732;2023-05-10T02:10:24;95850.25;;;12.71;100.00
74346;BME280;62776;50.518;6.732;2023-05-10T02:13:11;95858.19;;;12.66;100.00
74346;BME280;62776;50.518;6.732;2023-05-10T02:15:59;95851.38;;;12.62;100.00
74346;BME280;62776;50.518;6.732;2023-05-10T02:18:48;95850.41;;;12.65;100.00
74346;BME280;62776;50.518;6.732;2023-05-10T02:21:44;95850.56;;;12.60;100.00
74346;BME280;62776;50.518;6.732;2023-05-10T02:24:33;95857.69;;;12.54;100.00
74346;BME280;62776;50.518;6.732;2023-05-10T02:27:23;95863.81;;;12.53;100.00
74346;BME280;62776;50.518;6.732;2023-05-10T02:30:12;95865.50;;;12.55;100.00
74346;BME280;62776;50.518;6.732;2023-05-10T02:33:00;95869.75;;;12.58;100.00
74346;BME280;62776;50.518;6.732;2023-05-10T02:35:51;95864.72;;;12.52;100.00
74346;BME280;62776;50.518;6.732;2023-05-10T02:38:41;95871.53;;;12.56;100.00
74346;BME280;62776;50.518;6.732;2023-05-10T02:41:32;95876.09;;;12.49;100.00
74346;BME280;62776;50.518;6.732;2023-05-10T02:44:19;95874.28;;;12.51;100.00
74346;BME280;62776;50.518;6.732;2023-05-10T02:47:06;95880.34;;;12.52;100.00
74346;BME280;62776;50.518;6.732;2023-05-10T02:49:53;95878.63;;;12.52;100.00
74346;BME280;62776;50.518;6.732;2023-05-10T02:52:47;95880.44;;;12.49;100.00
74346;BME280;62776;50.518;6.732;2023-05-10T02:55:38;95875.06;;;12.55;100.00
74346;BME280;62776;50.518;6.732;2023-05-10T02:58:35;95874.91;;;12.61;100.00
74346;BME280;62776;50.518;6.732;2023-05-10T03:01:24;95873.34;;;12.54;100.00
74346;BME280;62776;50.518;6.732;2023-05-10T03:04:11;95873.34;;;12.54;100.00
74346;BME280;62776;50.518;6.732;2023-05-10T03:07:03;95873.44;;;12.51;100.00
74346;BME280;62776;50.518;6.732;2023-05-10T03:09:50;95881.22;;;12.52;100.00
74346;BME280;62776;50.518;6.732;2023-05-10T03:19:01;95872.94;;;12.38;100.00
74346;BME280;62776;50.518;6.732;2023-05-10T03:22:10;95881.25;;;12.51;100.00
74346;BME280;62776;50.518;6.732;2023-05-10T03:24:58;95888.00;;;12.58;100.00
74346;BME280;62776;50.518;6.732;2023-05-10T03:27:57;95887.00;;;12.62;100.00
74346;BME280;62776;50.518;6.732;2023-05-10T03:30:48;95885.41;;;12.58;100.00
74346;BME280;62776;50.518;6.732;2023-05-10T03:33:35;95883.47;;;12.64;100.00
74346;BME280;62776;50.518;6.732;2023-05-10T03:36:32;95886.97;;;12.63;100.00
74346;BME280;62776;50.518;6.732;2023-05-10T03:39:19;95894.81;;;12.62;100.00
74346;BME280;62776;50.518;6.732;2023-05-10T03:47:22;95902.72;;;12.59;100.00
74346;BME280;62776;50.518;6.732;2023-05-10T03:52:44;95903.50;;;12.62;100.00
74346;BME280;62776;50.518;6.732;2023-05-10T03:55:34;95901.03;;;12.58;100.00
74346;BME280;62776;50.518;6.732;2023-05-10T03:58:20;95897.44;;;12.62;100.00
74346;BME280;62776;50.518;6.732;2023-05-10T04:01:09;95903.56;;;12.61;100.00
74346;BME280;62776;50.518;6.732;2023-05-10T04:03:56;95894.03;;;12.60;100.00
74346;BME280;62776;50.518;6.732;2023-05-10T04:06:43;95896.56;;;12.61;100.00
74346;BME280;62776;50.518;6.732;2023-05-10T04:09:31;95893.09;;;12.62;100.00
74346;BME280;62776;50.518;6.732;2023-05-10T04:12:19;95895.63;;;12.64;100.00
74346;BME280;62776;50.518;6.732;2023-05-10T04:15:08;95905.13;;;12.66;100.00
74346;BME280;62776;50.518;6.732;2023-05-10T04:17:56;95901.53;;;12.70;100.00
74346;BME280;62776;50.518;6.732;2023-05-10T04:20:42;95900.75;;;12.67;100.00
74346;BME280;62776;50.518;6.732;2023-05-10T04:23:31;95895.53;;;12.67;100.00
74346;BME280;62776;50.518;6.732;2023-05-10T04:26:19;95901.78;;;12.61;100.00
74346;BME280;62776;50.518;6.732;2023-05-10T04:29:12;95899.31;;;12.57;100.00
74346;BME280;62776;50.518;6.732;2023-05-10T04:32:00;95898.53;;;12.55;100.00
74346;BME280;62776;50.518;6.732;2023-05-10T04:34:53;95902.91;;;12.53;100.00
74346;BME280;62776;50.518;6.732;2023-05-10T04:37:41;95896.09;;;12.49;100.00
74346;BME280;62776;50.518;6.732;2023-05-10T04:40:34;95898.13;;;12.37;100.00
74346;BME280;62776;50.518;6.732;2023-05-10T04:43:28;95902.47;;;12.37;100.00
74346;BME280;62776;50.518;6.732;2023-05-10T04:46:19;95895.09;;;12.22;100.00
74346;BME280;62776;50.518;6.732;2023-05-10T04:49:25;95900.84;;;12.02;100.00
74346;BME280;62776;50.518;6.732;2023-05-10T04:52:14;95909.06;;;12.19;100.00
74346;BME280;62776;50.518;6.732;2023-05-10T04:55:02;95904.81;;;12.15;100.00
74346;BME280;62776;50.518;6.732;2023-05-10T04:57:51;95900.56;;;12.13;100.00
74346;BME280;62776;50.518;6.732;2023-05-10T05:00:39;95909.16;;;12.15;100.00
74346;BME280;62776;50.518;6.732;2023-05-10T05:03:29;95909.06;;;12.19;100.00
74346;BME280;62776;50.518;6.732;2023-05-10T05:06:15;95917.69;;;12.21;100.00
74346;BME280;62776;50.518;6.732;2023-05-10T05:09:02;95916.63;;;12.28;100.00
74346;BME280;62776;50.518;6.732;2023-05-10T05:11:49;95917.44;;;12.30;100.00
74346;BME280;62776;50.518;6.732;2023-05-10T05:14:38;95918.19;;;12.34;100.00
74346;BME280;62776;50.518;6.732;2023-05-10T05:17:25;95924.41;;;12.30;100.00
74346;BME280;62776;50.518;6.732;2023-05-10T05:20:12;95923.41;;;12.34;100.00
74346;BME280;62776;50.518;6.732;2023-05-10T05:23:00;95923.34;;;12.37;100.00
74346;BME280;62776;50.518;6.732;2023-05-10T05:25:47;95916.22;;;12.43;100.00
74346;BME280;62776;50.518;6.732;2023-05-10T05:28:43;95918.75;;;12.47;100.00
74346;BME280;62776;50.518;6.732;2023-05-10T05:31:32;95929.09;;;12.50;100.00
74346;BME280;62776;50.518;6.732;2023-05-10T05:34:20;95928.97;;;12.53;100.00
74346;BME280;62776;50.518;6.732;2023-05-10T05:37:18;95928.22;;;12.49;100.00
74346;BME280;62776;50.518;6.732;2023-05-10T05:40:13;95930.69;;;12.54;100.00
74346;BME280;62776;50.518;6.732;2023-05-10T05:43:02;95937.53;;;12.58;100.00
74346;BME280;62776;50.518;6.732;2023-05-10T05:45:49;95932.25;;;12.61;100.00
74346;BME280;62776;50.518;6.732;2023-05-10T05:48:36;95939.06;;;12.65;100.00
74346;BME280;62776;50.518;6.732;2023-05-10T05:51:23;95939.78;;;12.70;100.00
74346;BME280;62776;50.518;6.732;2023-05-10T05:54:10;95945.72;;;12.75;100.00
74346;BME280;62776;50.518;6.732;2023-05-10T05:57:00;95946.94;;;12.63;100.00
74346;BME280;62776;50.518;6.732;2023-05-10T05:59:47;95954.38;;;12.77;100.00
74346;BME280;62776;50.518;6.732;2023-05-10T06:02:34;95955.03;;;12.83;100.00
74346;BME280;62776;50.518;6.732;2023-05-10T06:05:22;95960.88;;;12.93;100.00
74346;BME280;62776;50.518;6.732;2023-05-10T06:08:08;95961.56;;;12.98;100.00
74346;BME280;62776;50.518;6.732;2023-05-10T06:10:56;95971.00;;;13.02;100.00
74346;BME280;62776;50.518;6.732;2023-05-10T06:13:43;95971.84;;;13.04;100.00
74346;BME280;62776;50.518;6.732;2023-05-10T06:16:31;95971.00;;;13.02;100.00
74346;BME280;62776;50.518;6.732;2023-05-10T06:19:20;95980.00;;;12.92;100.00
74346;BME280;62776;50.518;6.732;2023-05-10T06:22:08;95973.94;;;12.91;100.00
74346;BME280;62776;50.518;6.732;2023-05-10T06:25:00;95981.16;;;12.51;100.00
74346;BME280;62776;50.518;6.732;2023-05-10T06:27:49;95981.03;;;12.86;100.00
74346;BME280;62776;50.518;6.732;2023-05-10T06:30:37;95979.06;;;12.94;100.00
74346;BME280;62776;50.518;6.732;2023-05-10T06:33:24;95984.03;;;13.03;100.00
74346;BME280;62776;50.518;6.732;2023-05-10T06:36:13;95982.22;;;13.06;100.00
74346;BME280;62776;50.518;6.732;2023-05-10T06:39:01;95987.13;;;13.18;100.00
74346;BME280;62776;50.518;6.732;2023-05-10T06:41:48;95995.69;;;13.21;100.00
74346;BME280;62776;50.518;6.732;2023-05-10T06:44:35;96000.25;;;13.15;100.00
74346;BME280;62776;50.518;6.732;2023-05-10T06:47:21;95990.53;;;13.20;100.00
74346;BME280;62776;50.518;6.732;2023-05-10T06:50:10;95978.97;;;13.28;100.00
74346;BME280;62776;50.518;6.732;2023-05-10T06:53:01;95990.75;;;13.41;100.00
74346;BME280;62776;50.518;6.732;2023-05-10T06:55:54;95989.47;;;13.54;100.00
74346;BME280;62776;50.518;6.732;2023-05-10T06:58:46;95990.91;;;13.65;100.00
74346;BME280;62776;50.518;6.732;2023-05-10T07:01:39;95985.69;;;13.65;100.00
74346;BME280;62776;50.518;6.732;2023-05-10T07:04:29;95992.75;;;13.61;100.00
74346;BME280;62776;50.518;6.732;2023-05-10T07:07:24;95995.19;;;13.66;100.00
74346;BME280;62776;50.518;6.732;2023-05-10T07:10:11;96000.25;;;13.72;100.00
74346;BME280;62776;50.518;6.732;2023-05-10T07:12:58;96001.13;;;13.71;100.00
74346;BME280;62776;50.518;6.732;2023-05-10T07:15:45;96000.06;;;13.78;100.00
74346;BME280;62776;50.518;6.732;2023-05-10T07:18:36;95999.16;;;13.79;100.00
74346;BME280;62776;50.518;6.732;2023-05-10T07:21:28;96008.78;;;13.77;100.00
74346;BME280;62776;50.518;6.732;2023-05-10T07:24:17;96011.50;;;13.74;100.00
74346;BME280;62776;50.518;6.732;2023-05-10T07:27:11;96008.78;;;13.77;100.00
74346;BME280;62776;50.518;6.732;2023-05-10T07:29:58;96020.94;;;13.78;100.00
74346;BME280;62776;50.518;6.732;2023-05-10T07:32:45;96014.00;;;13.77;100.00
74346;BME280;62776;50.518;6.732;2023-05-10T07:35:32;96023.72;;;13.73;100.00
74346;BME280;62776;50.518;6.732;2023-05-10T07:38:18;96025.47;;;13.73;100.00
74346;BME280;62776;50.518;6.732;2023-05-10T07:41:05;96027.31;;;13.69;100.00
74346;BME280;62776;50.518;6.732;2023-05-10T07:43:51;96024.75;;;13.68;100.00
74346;BME280;62776;50.518;6.732;2023-05-10T07:46:38;96024.75;;;13.68;100.00
74346;BME280;62776;50.518;6.732;2023-05-10T07:49:25;96034.34;;;13.67;100.00
74346;BME280;62776;50.518;6.732;2023-05-10T07:52:11;96038.66;;;13.68;100.00
74346;BME280;62776;50.518;6.732;2023-05-10T07:54:59;96035.91;;;13.73;100.00
74346;BME280;62776;50.518;6.732;2023-05-10T07:57:45;96036.56;;;13.79;100.00
74346;BME280;62776;50.518;6.732;2023-05-10T08:00:31;96040.91;;;13.80;100.00
74346;BME280;62776;50.518;6.732;2023-05-10T08:03:18;96038.13;;;13.85;100.00
74346;BME280;62776;50.518;6.732;2023-05-10T08:06:05;96034.53;;;13.89;100.00
74346;BME280;62776;50.518;6.732;2023-05-10T08:08:52;96037.44;;;13.80;100.00
74346;BME280;62776;50.518;6.732;2023-05-10T08:11:44;96042.75;;;13.77;100.00
74346;BME280;62776;50.518;6.732;2023-05-10T08:14:33;96046.38;;;13.73;100.00
74346;BME280;62776;50.518;6.732;2023-05-10T08:17:26;96047.16;;;13.75;100.00
74346;BME280;62776;50.518;6.732;2023-05-10T08:20:14;96047.16;;;13.75;100.00
74346;BME280;62776;50.518;6.732;2023-05-10T08:23:09;96051.63;;;13.71;100.00
74346;BME280;62776;50.518;6.732;2023-05-10T08:25:56;96063.78;;;13.72;100.00
74346;BME280;62776;50.518;6.732;2023-05-10T08:28:43;96051.84;;;13.64;100.00
74346;BME280;62776;50.518;6.732;2023-05-10T08:31:29;96056.75;;;13.74;100.00
74346;BME280;62776;50.518;6.732;2023-05-10T08:34:16;96052.22;;;13.81;100.00
74346;BME280;62776;50.518;6.732;2023-05-10T08:37:04;96062.06;;;13.99;100.00
74346;BME280;62776;50.518;6.732;2023-05-10T08:39:53;96068.69;;;14.10;100.00
74346;BME280;62776;50.518;6.732;2023-05-10T08:42:43;96080.88;;;14.10;100.00
74346;BME280;62776;50.518;6.732;2023-05-10T08:45:40;96084.28;;;14.12;100.00
74346;BME280;62776;50.518;6.732;2023-05-10T08:48:29;96080.94;;;14.08;100.00
74346;BME280;62776;50.518;6.732;2023-05-10T08:51:25;96076.25;;;14.18;100.00
74346;BME280;62776;50.518;6.732;2023-05-10T08:54:15;96080.34;;;14.27;100.00
74346;BME280;62776;50.518;6.732;2023-05-10T08:57:03;96082.00;;;14.29;100.00
74346;BME280;62776;50.518;6.732;2023-05-10T08:59:51;96080.94;;;14.36;100.00
74346;BME280;62776;50.518;6.732;2023-05-10T09:02:41;96080.03;;;14.37;100.00
74346;BME280;62776;50.518;6.732;2023-05-10T09:05:36;96080.25;;;14.30;100.00
74346;BME280;62776;50.518;6.732;2023-05-10T09:08:26;96086.88;;;14.41;100.00
74346;BME280;62776;50.518;6.732;2023-05-10T09:11:18;96088.63;;;14.41;100.00
74346;BME280;62776;50.518;6.732;2023-05-10T09:14:06;96086.69;;;14.47;100.00
74346;BME280;62776;50.518;6.732;2023-05-10T09:16:53;96097.59;;;14.60;100.00
74346;BME280;62776;50.518;6.732;2023-05-10T09:19:41;96092.78;;;14.72;100.00
74346;BME280;62776;50.518;6.732;2023-05-10T09:22:27;96089.94;;;14.80;100.00
74346;BME280;62776;50.518;6.732;2023-05-10T09:25:15;96096.75;;;14.84;100.00
74346;BME280;62776;50.518;6.732;2023-05-10T09:28:02;96099.00;;;14.95;100.00
74346;BME280;62776;50.518;6.732;2023-05-10T09:30:54;96104.19;;;14.96;100.00
74346;BME280;62776;50.518;6.732;2023-05-10T09:33:49;96105.69;;;15.03;100.00
74346;BME280;62776;50.518;6.732;2023-05-10T09:36:48;96104.41;;;15.15;100.00
74346;BME280;62776;50.518;6.732;2023-05-10T09:39:38;96109.94;;;15.30;100.00
74346;BME280;62776;50.518;6.732;2023-05-10T09:42:24;96118.38;;;15.38;100.00
74346;BME280;62776;50.518;6.732;2023-05-10T09:45:11;96110.28;;;15.45;100.00
74346;BME280;62776;50.518;6.732;2023-05-10T09:48:04;96110.00;;;15.04;100.00
74346;BME280;62776;50.518;6.732;2023-05-10T09:50:57;96106.31;;;15.34;100.00
74346;BME280;62776;50.518;6.732;2023-05-10T09:53:43;96106.78;;;15.46;100.00
74346;BME280;62776;50.518;6.732;2023-05-10T09:56:36;96117.88;;;15.04;100.00
74346;BME280;62776;50.518;6.732;2023-05-10T09:59:27;96117.41;;;15.41;100.00
74346;BME280;62776;50.518;6.732;2023-05-10T10:02:15;96111.75;;;15.53;100.00
74346;BME280;62776;50.518;6.732;2023-05-10T10:05:02;96116.91;;;15.56;100.00
74346;BME280;62776;50.518;6.732;2023-05-10T10:07:52;96118.25;;;15.66;100.00
74346;BME280;62776;50.518;6.732;2023-05-10T10:10:42;96123.78;;;15.59;100.00
74346;BME280;62776;50.518;6.732;2023-05-10T10:13:31;96119.69;;;15.52;100.00
74346;BME280;62776;50.518;6.732;2023-05-10T10:16:18;96116.59;;;15.64;100.00
74346;BME280;62776;50.518;6.732;2023-05-10T10:19:06;96110.16;;;15.72;100.00
74346;BME280;62776;50.518;6.732;2023-05-10T10:21:54;96114.25;;;15.79;100.00
74346;BME280;62776;50.518;6.732;2023-05-10T10:24:44;96120.88;;;15.89;100.00
74346;BME280;62776;50.518;6.732;2023-05-10T10:30:43;96116.88;;;16.03;100.00
74346;BME280;62776;50.518;6.732;2023-05-10T10:33:40;96111.84;;;16.20;100.00
74346;BME280;62776;50.518;6.732;2023-05-10T10:36:44;96110.22;;;16.37;100.00
74346;BME280;62776;50.518;6.732;2023-05-10T10:39:36;96117.16;;;16.62;100.00
74346;BME280;62776;50.518;6.732;2023-05-10T10:42:46;96116.63;;;16.52;100.00
74346;BME280;62776;50.518;6.732;2023-05-10T10:45:48;96115.38;;;16.62;100.00
74346;BME280;62776;50.518;6.732;2023-05-10T10:49:14;96113.34;;;16.47;100.00
74346;BME280;62776;50.518;6.732;2023-05-10T10:55:07;96112.44;;;16.70;100.00
74346;BME280;62776;50.518;6.732;2023-05-10T10:57:58;96107.28;;;16.88;100.00
74346;BME280;62776;50.518;6.732;2023-05-10T11:00:49;96104.78;;;16.85;100.00
74346;BME280;62776;50.518;6.732;2023-05-10T11:11:18;96114.38;;;16.86;100.00
74346;BME280;62776;50.518;6.732;2023-05-10T11:14:10;96113.47;;;17.07;100.00
74346;BME280;62776;50.518;6.732;2023-05-10T11:21:16;96114.09;;;16.92;100.00
74346;BME280;62776;50.518;6.732;2023-05-10T11:24:14;96111.44;;;16.94;100.00
74346;BME280;62776;50.518;6.732;2023-05-10T11:27:01;96113.94;;;16.97;100.00
74346;BME280;62776;50.518;6.732;2023-05-10T11:29:51;96121.59;;;17.01;100.00
74346;BME280;62776;50.518;6.732;2023-05-10T11:32:39;96123.28;;;17.23;100.00
74346;BME280;62776;50.518;6.732;2023-05-10T11:35:28;96126.19;;;17.37;100.00
74346;BME280;62776;50.518;6.732;2023-05-10T11:38:16;96122.66;;;17.38;100.00
74346;BME280;62776;50.518;6.732;2023-05-10T11:41:02;96131.03;;;17.46;100.00
74346;BME280;62776;50.518;6.732;2023-05-10T11:43:53;96131.56;;;17.34;100.00
74346;BME280;62776;50.518;6.732;2023-05-10T11:46:40;96130.53;;;17.38;100.00
74346;BME280;62776;50.518;6.732;2023-05-10T11:49:28;96128.41;;;17.46;100.00
74346;BME280;62776;50.518;6.732;2023-05-10T11:52:16;96133.22;;;17.36;100.00
74346;BME280;62776;50.518;6.732;2023-05-10T11:55:06;96130.34;;;17.22;97.98
74346;BME280;62776;50.518;6.732;2023-05-10T11:57:54;96137.94;;;17.28;99.74
74346;BME280;62776;50.518;6.732;2023-05-10T12:00:41;96130.13;;;17.67;99.82
74346;BME280;62776;50.518;6.732;2023-05-10T12:03:29;96131.00;;;17.86;96.14
74346;BME280;62776;50.518;6.732;2023-05-10T12:06:26;96124.81;;;17.87;96.87
74346;BME280;62776;50.518;6.732;2023-05-10T12:09:13;96125.72;;;17.86;95.76
74346;BME280;62776;50.518;6.732;2023-05-10T12:12:02;96129.22;;;17.87;99.45
74346;BME280;62776;50.518;6.732;2023-05-10T12:14:51;96128.31;;;17.88;97.89
74346;BME280;62776;50.518;6.732;2023-05-10T12:17:38;96133.97;;;17.79;94.73
74346;BME280;62776;50.518;6.732;2023-05-10T12:20:28;96127.84;;;17.78;95.66
74346;BME280;62776;50.518;6.732;2023-05-10T12:23:14;96131.63;;;17.91;100.00
74346;BME280;62776;50.518;6.732;2023-05-10T12:26:04;96141.50;;;17.86;96.01
74346;BME280;62776;50.518;6.732;2023-05-10T12:28:54;96133.72;;;17.85;100.00
74346;BME280;62776;50.518;6.732;2023-05-10T12:31:58;96136.97;;;17.71;92.87
74346;BME280;62776;50.518;6.732;2023-05-10T12:34:47;96130.09;;;17.87;92.01
74346;BME280;62776;50.518;6.732;2023-05-10T12:37:37;96126.22;;;17.94;90.29
74346;BME280;62776;50.518;6.732;2023-05-10T12:40:26;96126.19;;;18.14;92.01
74346;BME280;62776;50.518;6.732;2023-05-10T12:43:35;96127.94;;;18.33;97.23
74346;BME280;62776;50.518;6.732;2023-05-10T12:46:20;96128.53;;;18.20;93.92
74346;BME280;62776;50.518;6.732;2023-05-10T12:49:07;96140.88;;;18.18;93.54
74346;BME280;62776;50.518;6.732;2023-05-10T12:51:54;96137.59;;;18.13;89.75
74346;BME280;62776;50.518;6.732;2023-05-10T12:54:41;96139.09;;;18.19;90.65
74346;BME280;62776;50.518;6.732;2023-05-10T12:57:31;96146.34;;;18.14;86.14
74346;BME280;62776;50.518;6.732;2023-05-10T13:00:18;96146.94;;;18.20;83.28
74346;BME280;62776;50.518;6.732;2023-05-10T13:03:11;96149.28;;;18.26;86.05
74346;BME280;62776;50.518;6.732;2023-05-10T13:06:07;96151.59;;;18.33;87.05
74346;BME280;62776;50.518;6.732;2023-05-10T13:08:57;96143.22;;;18.24;85.54
74346;BME280;62776;50.518;6.732;2023-05-10T13:11:49;96149.06;;;18.12;86.33
74346;BME280;62776;50.518;6.732;2023-05-10T13:14:40;96144.16;;;18.23;90.08
74346;BME280;62776;50.518;6.732;2023-05-10T13:17:31;96144.16;;;18.23;84.54
74346;BME280;62776;50.518;6.732;2023-05-10T13:20:18;96145.66;;;18.29;83.33
74346;BME280;62776;50.518;6.732;2023-05-10T13:23:10;96143.53;;;18.37;84.66
74346;BME280;62776;50.518;6.732;2023-05-10T13:26:00;96144.56;;;18.33;81.20
74346;BME280;62776;50.518;6.732;2023-05-10T13:28:46;96144.09;;;18.25;78.53
74346;BME280;62776;50.518;6.732;2023-05-10T13:31:40;96150.56;;;18.18;85.36
74346;BME280;62776;50.518;6.732;2023-05-10T13:34:27;96139.09;;;18.00;82.97
74346;BME280;62776;50.518;6.732;2023-05-10T13:37:18;96154.41;;;17.72;81.43
74346;BME280;62776;50.518;6.732;2023-05-10T13:40:10;96155.16;;;17.55;81.74
74346;BME280;62776;50.518;6.732;2023-05-10T13:43:09;96155.16;;;17.35;85.18
74346;BME280;62776;50.518;6.732;2023-05-10T13:46:01;96166.13;;;17.25;88.82
74346;BME280;62776;50.518;6.732;2023-05-10T13:48:49;96165.19;;;17.26;91.43
74346;BME280;62776;50.518;6.732;2023-05-10T13:51:36;96161.41;;;17.33;87.75
74346;BME280;62776;50.518;6.732;2023-05-10T13:54:24;96163.22;;;17.31;90.86
74346;BME280;62776;50.518;6.732;2023-05-10T13:57:21;96167.16;;;17.21;86.04
74346;BME280;62776;50.518;6.732;2023-05-10T14:00:08;96165.44;;;17.20;86.89
74346;BME280;62776;50.518;6.732;2023-05-10T14:02:56;96167.03;;;17.24;87.77
74346;BME280;62776;50.518;6.732;2023-05-10T14:05:42;96163.63;;;17.22;88.65
74346;BME280;62776;50.518;6.732;2023-05-10T14:08:32;96155.41;;;17.29;87.77
74346;BME280;62776;50.518;6.732;2023-05-10T14:11:20;96155.50;;;17.28;89.03
74346;BME280;62776;50.518;6.732;2023-05-10T14:14:10;96146.81;;;17.26;92.72
74346;BME280;62776;50.518;6.732;2023-05-10T14:17:02;96161.88;;;17.22;93.27
74346;BME280;62776;50.518;6.732;2023-05-10T14:19:50;96159.94;;;17.26;92.68
74346;BME280;62776;50.518;6.732;2023-05-10T14:22:42;96152.28;;;17.21;89.89
74346;BME280;62776;50.518;6.732;2023-05-10T14:25:30;96161.66;;;17.27;94.22
74346;BME280;62776;50.518;6.732;2023-05-10T14:28:18;96157.28;;;17.27;90.06
74346;BME280;62776;50.518;6.732;2023-05-10T14:31:08;96160.34;;;17.17;94.89
74346;BME280;62776;50.518;6.732;2023-05-10T14:33:55;96154.41;;;17.11;87.18
74346;BME280;62776;50.518;6.732;2023-05-10T14:36:41;96155.84;;;16.98;84.98
74346;BME280;62776;50.518;6.732;2023-05-10T14:39:33;96166.06;;;16.84;88.33
74346;BME280;62776;50.518;6.732;2023-05-10T14:42:20;96161.88;;;16.80;90.76
74346;BME280;62776;50.518;6.732;2023-05-10T14:45:06;96159.38;;;16.77;93.07
74346;BME280;62776;50.518;6.732;2023-05-10T14:47:53;96161.03;;;16.58;100.00
74346;BME280;62776;50.518;6.732;2023-05-10T14:50:39;96159.34;;;16.34;100.00
74346;BME280;62776;50.518;6.732;2023-05-10T14:53:32;96170.19;;;16.25;100.00
74346;BME280;62776;50.518;6.732;2023-05-10T14:56:19;96170.28;;;16.23;100.00
74346;BME280;62776;50.518;6.732;2023-05-10T14:59:07;96166.28;;;16.35;100.00
74346;BME280;62776;50.518;6.732;2023-05-10T15:01:59;96168.50;;;16.45;100.00
74346;BME280;62776;50.518;6.732;2023-05-10T15:04:47;96169.19;;;16.50;100.00
74346;BME280;62776;50.518;6.732;2023-05-10T15:07:35;96166.50;;;16.52;100.00
74346;BME280;62776;50.518;6.732;2023-05-10T15:10:33;96173.22;;;16.59;100.00
74346;BME280;62776;50.518;6.732;2023-05-10T15:13:22;96175.53;;;16.88;100.00
74346;BME280;62776;50.518;6.732;2023-05-10T15:16:11;96172.28;;;17.24;100.00
74346;BME280;62776;50.518;6.732;2023-05-10T15:18:57;96171.09;;;17.51;100.00
74346;BME280;62776;50.518;6.732;2023-05-10T15:21:47;96173.88;;;17.68;100.00
74346;BME280;62776;50.518;6.732;2023-05-10T15:24:34;96180.84;;;17.69;100.00
74346;BME280;62776;50.518;6.732;2023-05-10T15:27:20;96180.41;;;17.59;100.00
74346;BME280;62776;50.518;6.732;2023-05-10T15:30:08;96181.03;;;17.44;100.00
74346;BME280;62776;50.518;6.732;2023-05-10T15:33:01;96189.66;;;17.28;100.00
74346;BME280;62776;50.518;6.732;2023-05-10T15:35:49;96195.66;;;17.09;100.00